createdAt,value
2024-02-16T00:02:27.856Z,98.00
2024-02-16T00:04:56.607Z,97.80
2024-02-16T00:07:34.584Z,98.20
2024-02-16T00:10:01.871Z,98.30
2024-02-16T00:12:37.277Z,98.40
2024-02-16T00:15:05.110Z,98.20
2024-02-16T00:17:53.301Z,98.20
2024-02-16T00:20:32.589Z,98.40
2024-02-16T00:23:14.620Z,98.60
2024-02-16T00:25:55.139Z,98.40
2024-02-16T00:28:27.856Z,98.30
2024-02-16T00:31:04.891Z,98.30
2024-02-16T00:33:38.180Z,98.30
2024-02-16T00:36:47.074Z,98.50
2024-02-16T00:39:44.448Z,98.50
2024-02-16T00:43:25.789Z,98.10
2024-02-16T00:45:22.654Z,98.00
2024-02-16T00:48:00.622Z,98.10
2024-02-16T00:50:38.363Z,98.10
2024-02-16T00:53:11.548Z,97.60
2024-02-16T00:55:47.576Z,97.50
2024-02-16T00:58:18.436Z,97.80
2024-02-16T01:00:48.347Z,97.90
2024-02-16T01:03:20.512Z,97.80
2024-02-16T01:06:01.129Z,97.80
2024-02-16T01:08:29.290Z,98.00
2024-02-16T01:11:00.886Z,98.00
2024-02-16T01:13:31.411Z,98.10
2024-02-16T01:16:02.352Z,98.10
2024-02-16T01:18:38.941Z,98.30
2024-02-16T01:21:15.421Z,98.60
2024-02-16T01:24:08.445Z,98.40
2024-02-16T01:26:43.652Z,98.40
2024-02-16T01:29:15.720Z,98.30
2024-02-16T01:31:46.241Z,98.30
2024-02-16T01:34:19.754Z,98.20
2024-02-16T01:37:20.391Z,98.30
2024-02-16T01:39:54.881Z,98.30
2024-02-16T01:42:26.166Z,98.50
2024-02-16T01:44:56.365Z,98.50
2024-02-16T01:47:32.425Z,98.50
2024-02-16T02:00:58.413Z,98.80
2024-02-16T02:03:26.042Z,99.00
2024-02-16T02:05:57.482Z,99.00
2024-02-16T02:08:28.856Z,98.90
2024-02-16T02:10:56.880Z,99.20
2024-02-16T02:13:24.260Z,99.20
2024-02-16T02:15:54.787Z,99.20
2024-02-16T02:18:30.769Z,99.10
2024-02-16T02:21:06.897Z,99.10
2024-02-16T02:24:33.334Z,99.20
2024-02-16T02:31:58.943Z,99.10
2024-02-16T02:34:27.978Z,99.10
2024-02-16T02:37:20.701Z,99.00
2024-02-16T02:39:54.437Z,99.00
2024-02-16T02:42:24.413Z,99.10
2024-02-16T02:44:54.732Z,98.90
2024-02-16T02:47:25.106Z,98.90
2024-02-16T02:49:59.375Z,98.90
2024-02-16T02:52:38.672Z,99.00
2024-02-16T02:55:11.812Z,98.90
2024-02-16T02:57:42.962Z,98.90
2024-02-16T03:00:15.862Z,98.70
2024-02-16T03:02:46.460Z,98.60
2024-02-16T03:05:13.858Z,98.50
2024-02-16T03:07:41.959Z,98.20
2024-02-16T03:10:11.710Z,98.20
2024-02-16T03:12:46.673Z,98.40
2024-02-16T03:15:25.704Z,98.40
2024-02-16T03:17:56.165Z,98.40
2024-02-16T03:20:29.686Z,98.40
2024-02-16T03:22:57.683Z,98.40
2024-02-16T03:25:28.505Z,98.50
2024-02-16T03:27:58.824Z,98.70
2024-02-16T03:30:28.789Z,98.40
2024-02-16T03:33:03.371Z,98.40
2024-02-16T03:35:40.200Z,98.30
2024-02-16T03:38:07.984Z,98.20
2024-02-16T03:40:35.771Z,98.20
2024-02-16T03:43:05.012Z,98.30
2024-02-16T03:45:32.512Z,98.30
2024-02-16T03:48:06.648Z,98.50
2024-02-16T03:50:39.210Z,98.70
2024-02-16T03:53:15.202Z,98.70
2024-02-16T03:55:44.855Z,98.80
2024-02-16T03:58:15.785Z,99.00
2024-02-16T04:00:46.873Z,98.80
2024-02-16T04:03:15.663Z,98.60
2024-02-16T04:05:51.628Z,98.50
2024-02-16T04:08:26.422Z,98.60
2024-02-16T04:10:53.666Z,98.70
2024-02-16T04:13:24.523Z,98.70
2024-02-16T04:15:55.320Z,98.70
2024-02-16T04:18:26.685Z,98.50
2024-02-16T04:20:54.804Z,98.60
2024-02-16T04:23:24.920Z,98.80
2024-02-16T04:26:01.085Z,98.80
2024-02-16T04:28:34.149Z,98.60
2024-02-16T04:31:05.405Z,98.60
2024-02-16T04:33:32.724Z,98.60
2024-02-16T04:36:10.538Z,98.80
2024-02-16T04:38:37.949Z,99.00
2024-02-16T04:41:09.508Z,99.10
2024-02-16T04:43:40.601Z,99.20
2024-02-16T04:46:20.683Z,99.10
2024-02-16T04:48:48.360Z,99.10
2024-02-16T04:51:17.912Z,99.00
2024-02-16T04:54:03.081Z,99.00
2024-02-16T04:56:30.375Z,99.00
2024-02-16T04:59:08.496Z,99.00
2024-02-16T05:01:38.791Z,99.10
2024-02-16T05:04:11.652Z,99.20
2024-02-16T05:06:44.283Z,99.10
2024-02-16T05:09:14.613Z,99.20
2024-02-16T05:11:42.654Z,99.30
2024-02-16T05:14:15.735Z,99.20
2024-02-16T05:16:46.386Z,99.40
2024-02-16T05:19:18.656Z,99.20
2024-02-16T05:21:52.049Z,99.20
2024-02-16T05:24:26.694Z,99.10
2024-02-16T05:26:57.155Z,99.00
2024-02-16T05:29:30.535Z,99.00
2024-02-16T05:32:00.034Z,99.20
2024-02-16T05:34:28.829Z,99.30
2024-02-16T05:36:56.355Z,99.30
2024-02-16T05:39:28.282Z,99.30
2024-02-16T05:41:56.058Z,99.30
2024-02-16T05:44:23.314Z,99.40
2024-02-16T05:46:53.633Z,99.50
2024-02-16T05:49:24.954Z,99.50
2024-02-16T05:52:26.988Z,99.50
2024-02-16T05:55:14.774Z,99.30
2024-02-16T05:57:44.286Z,99.50
2024-02-16T06:00:17.277Z,99.40
2024-02-16T06:02:44.903Z,99.40
2024-02-16T06:05:23.005Z,99.50
2024-02-16T06:07:53.293Z,99.30
2024-02-16T06:10:26.421Z,99.40
2024-02-16T06:12:54.910Z,99.40
2024-02-16T06:15:22.895Z,99.50
2024-02-16T06:17:55.159Z,99.20
2024-02-16T06:20:26.421Z,99.50
2024-02-16T06:22:56.838Z,99.10
2024-02-16T06:25:48.575Z,99.10
2024-02-16T06:28:19.441Z,99.40
2024-02-16T06:31:10.111Z,99.50
2024-02-16T06:33:39.869Z,99.20
2024-02-16T06:36:17.916Z,98.90
2024-02-16T06:39:00.851Z,98.90
2024-02-16T06:41:28.312Z,98.90
2024-02-16T06:44:03.465Z,98.90
2024-02-16T06:46:36.509Z,98.90
2024-02-16T06:49:09.052Z,99.10
2024-02-16T06:51:40.414Z,99.10
2024-02-16T06:54:13.225Z,99.10
2024-02-16T06:56:49.019Z,99.10
2024-02-16T06:59:22.648Z,99.00
2024-02-16T07:05:07.988Z,98.90
2024-02-16T07:07:37.974Z,98.60
2024-02-16T07:13:30.338Z,98.70
2024-02-16T07:16:00.819Z,98.60
2024-02-16T07:18:34.756Z,98.50
2024-02-16T07:21:09.176Z,98.70
2024-02-16T07:26:42.052Z,98.60
2024-02-16T07:29:27.238Z,98.30
2024-02-16T07:31:56.712Z,98.50
2024-02-16T07:34:46.822Z,98.60
2024-02-16T07:37:17.866Z,98.20
2024-02-16T07:40:13.598Z,97.90
2024-02-16T07:43:49.554Z,98.20
2024-02-16T07:47:19.135Z,98.30
2024-02-16T07:50:18.825Z,98.00
2024-02-16T07:52:54.995Z,97.90
2024-02-16T07:55:27.603Z,98.10
2024-02-16T07:58:10.944Z,97.70
2024-02-16T08:01:10.583Z,97.80
2024-02-16T08:03:36.312Z,97.90
2024-02-16T08:06:26.064Z,98.00
2024-02-16T08:08:56.193Z,98.00
2024-02-16T08:11:40.533Z,98.10
2024-02-16T08:14:10.692Z,98.20
2024-02-16T08:16:37.905Z,98.30
2024-02-16T08:19:05.719Z,98.30
2024-02-16T08:21:43.858Z,98.50
2024-02-16T08:24:42.079Z,98.10
2024-02-16T08:27:16.590Z,97.70
2024-02-16T08:30:00.816Z,97.50
2024-02-16T08:32:45.394Z,97.60
2024-02-16T08:35:33.641Z,97.70
2024-02-16T08:38:09.645Z,97.70
2024-02-16T08:40:43.135Z,97.80
2024-02-16T08:43:15.751Z,97.80
2024-02-16T08:48:28.636Z,98.00
2024-02-16T08:51:34.606Z,98.00
2024-02-16T08:54:10.744Z,97.90
2024-02-16T08:57:10.725Z,97.90
2024-02-16T08:59:30.410Z,97.70
2024-02-16T09:01:59.914Z,98.00
2024-02-16T09:04:41.477Z,97.90
2024-02-16T09:07:26.910Z,97.70
2024-02-16T09:10:09.828Z,98.00
2024-02-16T09:12:37.824Z,98.20
2024-02-16T09:15:17.874Z,98.20
2024-02-16T09:17:45.394Z,98.00
2024-02-16T09:20:27.650Z,97.90
2024-02-16T09:23:11.478Z,97.70
2024-02-16T09:25:43.633Z,97.80
2024-02-16T09:28:29.822Z,97.90
2024-02-16T09:31:16.176Z,97.90
2024-02-16T09:34:05.969Z,97.60
2024-02-16T09:37:05.807Z,97.80
2024-02-16T09:40:51.248Z,98.00
2024-02-16T09:42:58.253Z,98.30
2024-02-16T09:45:30.535Z,98.60
2024-02-16T09:48:07.758Z,98.50
2024-02-16T09:54:07.752Z,98.10
2024-02-16T09:56:36.113Z,98.30
2024-02-16T10:02:50.771Z,99.00
2024-02-16T10:05:51.388Z,98.90
2024-02-16T10:08:47.857Z,98.80
2024-02-16T10:11:23.306Z,98.40
2024-02-16T10:14:22.135Z,98.60
2024-02-16T10:17:21.728Z,98.30
2024-02-16T10:20:09.687Z,98.00
2024-02-16T10:22:48.317Z,98.20
2024-02-16T10:25:45.162Z,98.20
2024-02-16T10:28:33.212Z,98.30
2024-02-16T10:31:12.062Z,98.50
2024-02-16T10:34:37.198Z,98.50
2024-02-16T10:37:09.392Z,98.60
2024-02-16T10:39:46.109Z,98.50
2024-02-16T10:42:25.552Z,98.60
2024-02-16T10:45:05.998Z,98.70
2024-02-16T10:47:41.686Z,98.90
2024-02-16T10:50:29.111Z,98.80
2024-02-16T10:53:40.973Z,98.80
2024-02-16T10:56:28.492Z,98.60
2024-02-16T10:59:11.465Z,98.80
2024-02-16T11:01:48.953Z,98.70
2024-02-16T11:04:23.102Z,98.80
2024-02-16T11:06:57.066Z,98.90
2024-02-16T11:09:38.225Z,98.90
2024-02-16T11:12:15.010Z,99.20
2024-02-16T11:14:57.053Z,98.90
2024-02-16T11:18:00.461Z,98.80
2024-02-16T11:20:59.116Z,99.00
2024-02-16T11:23:37.728Z,98.80
2024-02-16T11:26:10.285Z,99.00
2024-02-16T11:29:00.180Z,98.90
2024-02-16T11:31:29.851Z,99.10
2024-02-16T11:34:12.488Z,99.00
2024-02-16T11:39:50.587Z,99.10
2024-02-16T11:42:27.555Z,98.90
2024-02-16T11:45:06.690Z,98.70
2024-02-16T11:47:47.010Z,98.60
2024-02-16T11:50:45.216Z,98.80
2024-02-16T11:53:24.341Z,98.60
2024-02-16T11:56:05.980Z,98.40
2024-02-16T11:58:43.573Z,98.50
2024-02-16T12:02:06.501Z,98.70
2024-02-16T12:04:34.298Z,98.80
2024-02-16T12:07:29.156Z,98.70
2024-02-16T12:10:06.431Z,98.50
2024-02-16T12:12:36.603Z,98.30
2024-02-16T12:15:21.359Z,98.10
2024-02-16T12:18:02.123Z,98.10
2024-02-16T12:20:34.096Z,97.90
2024-02-16T12:23:33.315Z,97.80
2024-02-16T12:26:01.598Z,97.80
2024-02-16T12:28:34.662Z,97.70
2024-02-16T12:31:09.043Z,97.50
2024-02-16T12:33:48.551Z,97.70
2024-02-16T12:36:37.203Z,97.50
2024-02-16T12:39:06.276Z,97.20
2024-02-16T12:41:46.049Z,97.10
2024-02-16T12:44:21.754Z,97.00
2024-02-16T12:46:54.348Z,97.00
2024-02-16T12:52:23.049Z,97.20
2024-02-16T12:54:53.368Z,97.00
2024-02-16T12:57:26.731Z,97.10
2024-02-16T13:00:35.914Z,97.10
2024-02-16T13:03:38.856Z,97.10
2024-02-16T13:06:18.060Z,97.30
2024-02-16T13:08:50.089Z,97.30
2024-02-16T13:11:26.636Z,97.30
2024-02-16T13:14:14.987Z,97.30
2024-02-16T13:16:46.681Z,97.40
2024-02-16T13:22:15.175Z,97.10
2024-02-16T13:24:57.352Z,97.20
2024-02-16T13:27:33.739Z,97.20
2024-02-16T13:30:08.373Z,97.20
2024-02-16T13:32:42.446Z,97.30
2024-02-16T13:35:24.959Z,97.30
2024-02-16T13:37:55.762Z,97.30
2024-02-16T13:40:26.218Z,97.30
2024-02-16T13:43:02.029Z,97.30
2024-02-16T13:45:54.791Z,97.70
2024-02-16T13:48:31.712Z,97.70
2024-02-16T13:51:02.331Z,97.50
2024-02-16T13:53:34.694Z,97.60
2024-02-16T13:56:08.826Z,97.70
2024-02-16T13:58:49.709Z,97.60
2024-02-16T14:01:41.759Z,97.50
2024-02-16T14:04:12.296Z,97.70
2024-02-16T14:06:40.345Z,97.70
2024-02-16T14:09:24.031Z,97.60
2024-02-16T14:11:56.984Z,97.70
2024-02-16T14:14:36.233Z,97.70
2024-02-16T14:17:08.749Z,97.60
2024-02-16T14:19:41.287Z,97.60
2024-02-16T14:22:13.870Z,97.50
2024-02-16T14:24:41.229Z,97.50
2024-02-16T14:27:14.876Z,97.50
2024-02-16T14:29:42.637Z,97.60
2024-02-16T14:32:10.169Z,97.40
2024-02-16T14:34:58.233Z,97.20
2024-02-16T14:37:30.246Z,97.30
2024-02-16T14:39:58.857Z,97.20
2024-02-16T14:42:27.075Z,97.20
2024-02-16T14:44:55.644Z,97.20
2024-02-16T14:47:25.021Z,97.40
2024-02-16T14:49:53.481Z,97.30
2024-02-16T14:52:22.452Z,97.20
2024-02-16T14:54:55.152Z,97.10
2024-02-16T14:57:26.381Z,97.00
2024-02-16T15:00:15.426Z,97.00
2024-02-16T15:02:44.587Z,96.90
2024-02-16T15:05:12.161Z,96.90
2024-02-16T15:07:48.054Z,96.90
2024-02-16T15:10:18.622Z,96.90
2024-02-16T15:12:53.796Z,97.00
2024-02-16T15:15:25.136Z,96.90
2024-02-16T15:17:52.998Z,96.90
2024-02-16T15:20:26.743Z,97.00
2024-02-16T15:23:04.010Z,96.90
2024-02-16T15:25:41.870Z,96.90
2024-02-16T15:28:09.118Z,97.00
2024-02-16T15:30:36.905Z,96.80
2024-02-16T15:33:04.298Z,96.70
2024-02-16T15:35:40.356Z,96.70
2024-02-16T15:38:07.658Z,96.30
2024-02-16T15:40:55.682Z,96.10
2024-02-16T15:43:24.065Z,96.20
2024-02-16T15:46:02.426Z,96.40
2024-02-16T15:48:36.315Z,96.30
2024-02-16T15:51:06.336Z,96.50
2024-02-16T15:53:36.013Z,96.10
2024-02-16T15:56:05.777Z,96.20
2024-02-16T15:58:46.072Z,96.20
2024-02-16T16:01:13.829Z,95.90
2024-02-16T16:03:47.814Z,95.90
2024-02-16T16:06:15.739Z,95.90
2024-02-16T16:08:48.952Z,96.10
2024-02-16T16:11:29.102Z,96.20
2024-02-16T16:14:03.629Z,96.10
2024-02-16T16:16:37.652Z,96.00
2024-02-16T16:19:09.215Z,96.00
2024-02-16T16:21:37.096Z,95.70
2024-02-16T16:24:12.521Z,95.70
2024-02-16T16:26:46.434Z,95.70
2024-02-16T16:29:36.113Z,95.50
2024-02-16T16:32:07.040Z,95.30
2024-02-16T16:34:36.352Z,95.50
2024-02-16T16:37:08.322Z,95.40
2024-02-16T16:39:38.406Z,95.40
2024-02-16T16:42:08.483Z,95.30
2024-02-16T16:44:35.754Z,95.10
2024-02-16T16:47:14.062Z,95.00
2024-02-16T16:49:42.722Z,94.90
2024-02-16T16:52:11.348Z,94.90
2024-02-16T16:54:38.970Z,94.80
2024-02-16T16:57:09.245Z,94.80
2024-02-16T16:59:36.897Z,94.70
2024-02-16T17:02:07.447Z,94.70
2024-02-16T17:04:35.188Z,94.80
2024-02-16T17:07:07.256Z,94.70
2024-02-16T17:09:41.035Z,95.00
2024-02-16T17:12:11.391Z,95.00
2024-02-16T17:14:41.078Z,95.30
2024-02-16T17:17:08.417Z,95.30
2024-02-16T17:19:35.730Z,95.30
2024-02-16T17:22:05.688Z,95.20
2024-02-16T17:24:41.616Z,95.20
2024-02-16T17:27:29.632Z,95.20
2024-02-16T17:29:57.407Z,95.10
2024-02-16T17:32:27.828Z,95.10
2024-02-16T17:34:55.691Z,95.10
2024-02-16T17:37:40.744Z,95.10
2024-02-16T17:40:13.128Z,94.90
2024-02-16T17:42:48.750Z,94.80
2024-02-16T17:45:17.865Z,94.80
2024-02-16T17:48:00.145Z,94.70
2024-02-16T17:50:30.471Z,94.70
2024-02-16T17:52:57.750Z,94.30
2024-02-16T17:55:25.411Z,94.20
2024-02-16T17:57:52.629Z,94.00
2024-02-16T18:00:20.721Z,93.90
2024-02-16T18:02:53.505Z,93.70
2024-02-16T18:05:23.504Z,93.70
2024-02-16T18:07:51.758Z,93.70
2024-02-16T18:10:26.873Z,93.80
2024-02-16T18:12:57.767Z,93.50
2024-02-16T18:15:45.021Z,93.70
2024-02-16T18:18:13.016Z,93.50
2024-02-16T18:20:49.259Z,93.50
2024-02-16T18:23:17.534Z,93.40
2024-02-16T18:25:49.537Z,93.20
2024-02-16T18:28:25.472Z,93.00
2024-02-16T18:30:56.264Z,93.00
2024-02-16T18:33:34.795Z,92.90
2024-02-16T18:36:06.582Z,92.80
2024-02-16T18:38:36.897Z,92.80
2024-02-16T18:41:12.640Z,92.80
2024-02-16T18:43:40.381Z,92.50
2024-02-16T18:46:10.503Z,92.60
2024-02-16T18:48:48.559Z,92.50
2024-02-16T18:51:15.804Z,92.20
2024-02-16T18:53:51.867Z,92.30
2024-02-16T18:56:22.617Z,92.20
2024-02-16T18:58:58.179Z,91.90
2024-02-16T19:01:38.648Z,91.70
2024-02-16T19:04:06.505Z,91.30
2024-02-16T19:06:42.922Z,91.30
2024-02-16T19:09:10.840Z,91.10
2024-02-16T19:11:46.627Z,90.90
2024-02-16T19:14:14.275Z,90.90
2024-02-16T19:16:46.548Z,90.90
2024-02-16T19:19:15.670Z,90.90
2024-02-16T19:21:44.648Z,90.50
2024-02-16T19:24:15.851Z,90.60
2024-02-16T19:26:47.254Z,90.40
2024-02-16T19:29:14.611Z,90.30
2024-02-16T19:31:44.605Z,90.20
2024-02-16T19:34:11.868Z,90.20
2024-02-16T19:36:56.791Z,90.20
2024-02-16T19:39:26.638Z,90.10
2024-02-16T19:42:00.236Z,89.80
2024-02-16T19:44:29.309Z,89.90
2024-02-16T19:47:01.500Z,89.80
2024-02-16T19:49:29.375Z,89.70
2024-02-16T19:52:01.049Z,89.80
2024-02-16T19:54:46.397Z,89.70
2024-02-16T19:57:14.724Z,89.60
2024-02-16T19:59:46.740Z,89.50
2024-02-16T20:02:23.844Z,89.30
2024-02-16T20:05:01.473Z,89.30
2024-02-16T20:07:29.763Z,89.30
2024-02-16T20:09:57.432Z,89.30
2024-02-16T20:12:28.291Z,89.40
2024-02-16T20:15:03.957Z,89.40
2024-02-16T20:17:31.643Z,89.40
2024-02-16T20:20:17.077Z,89.30
2024-02-16T20:22:44.506Z,89.20
2024-02-16T20:25:15.413Z,89.10
2024-02-16T20:27:48.573Z,89.10
2024-02-16T20:30:16.204Z,89.00
2024-02-16T20:32:51.762Z,88.80
2024-02-16T20:35:20.574Z,88.80
2024-02-16T20:37:50.059Z,88.80
2024-02-16T20:40:21.470Z,88.80
2024-02-16T20:42:49.195Z,89.00
2024-02-16T20:45:17.419Z,89.10
2024-02-16T20:47:48.086Z,89.40
2024-02-16T20:50:16.780Z,90.00
2024-02-16T20:52:47.289Z,90.50
2024-02-16T20:55:18.721Z,91.00
2024-02-16T20:57:50.456Z,91.10
2024-02-16T21:00:24.579Z,91.10
2024-02-16T21:02:59.627Z,91.10
2024-02-16T21:05:29.493Z,91.20
2024-02-16T21:08:01.847Z,91.30
2024-02-16T21:10:29.637Z,91.00
2024-02-16T21:12:57.398Z,91.00
2024-02-16T21:15:37.941Z,90.60
2024-02-16T21:18:05.969Z,90.50
2024-02-16T21:20:36.617Z,90.50
2024-02-16T21:23:10.142Z,90.10
2024-02-16T21:25:39.302Z,89.70
2024-02-16T21:28:07.772Z,89.40
2024-02-16T21:30:36.362Z,89.20
2024-02-16T21:33:08.952Z,89.10
2024-02-16T21:35:37.599Z,88.80
2024-02-16T21:38:06.726Z,88.40
2024-02-16T21:40:37.480Z,88.40
2024-02-16T21:43:07.846Z,88.20
2024-02-16T21:45:35.187Z,88.10
2024-02-16T21:48:04.763Z,87.90
2024-02-16T21:50:34.306Z,87.70
2024-02-16T21:53:25.333Z,87.50
2024-02-16T21:55:52.843Z,87.30
2024-02-16T21:58:20.640Z,87.30
2024-02-16T22:00:48.445Z,87.30
2024-02-16T22:03:15.964Z,87.20
2024-02-16T22:05:46.320Z,87.00
2024-02-16T22:08:16.835Z,87.10
2024-02-16T22:10:45.419Z,87.10
2024-02-16T22:13:13.525Z,87.20
2024-02-16T22:15:46.702Z,87.20
2024-02-16T22:18:16.749Z,87.30
2024-02-16T22:20:46.210Z,87.30
2024-02-16T22:23:16.006Z,87.20
2024-02-16T22:25:45.469Z,87.20
2024-02-16T22:28:12.527Z,87.10
2024-02-16T22:30:47.384Z,87.30
2024-02-16T22:33:14.759Z,87.40
2024-02-16T22:35:49.410Z,87.50
2024-02-16T22:38:19.168Z,87.40
2024-02-16T22:40:50.848Z,87.40
2024-02-16T22:43:23.966Z,87.50
2024-02-16T22:45:54.328Z,87.50
2024-02-16T22:48:21.659Z,87.40
2024-02-16T22:50:50.516Z,87.60
2024-02-16T22:53:18.348Z,87.60
2024-02-16T22:55:48.762Z,87.70
2024-02-16T22:58:19.254Z,87.80
2024-02-16T23:00:50.772Z,87.80
2024-02-16T23:03:18.943Z,87.60
2024-02-16T23:05:52.403Z,87.70
2024-02-16T23:08:20.849Z,87.60
2024-02-16T23:10:48.243Z,87.60
2024-02-16T23:13:19.761Z,87.50
2024-02-16T23:15:47.277Z,87.40
2024-02-16T23:18:14.571Z,87.40
2024-02-16T23:20:44.274Z,87.50
2024-02-16T23:23:12.814Z,87.40
2024-02-16T23:25:47.663Z,87.40
2024-02-16T23:28:22.028Z,87.30
2024-02-16T23:30:51.916Z,87.30
2024-02-16T23:33:19.395Z,87.20
2024-02-16T23:35:48.364Z,87.00
2024-02-16T23:38:17.711Z,87.00
2024-02-16T23:40:48.649Z,86.90
2024-02-16T23:43:16.666Z,86.80
2024-02-16T23:45:52.194Z,86.70
2024-02-16T23:48:20.237Z,86.70
2024-02-16T23:50:49.210Z,86.70
2024-02-16T23:53:17.202Z,86.70
2024-02-16T23:55:46.794Z,86.70
2024-02-16T23:58:30.809Z,86.80
